sensor_id;sensor_type;location;lat;lon;timestamp;P1;durP1;ratioP1;P2;durP2;ratioP2
60318;SDS011;46163;52.306;5.634;2023-07-29T00:00:51;3.28;;;2.38;;
60318;SDS011;46163;52.306;5.634;2023-07-29T00:03:16;2.40;;;2.20;;
60318;SDS011;46163;52.306;5.634;2023-07-29T00:05:42;3.20;;;2.30;;
60318;SDS011;46163;52.306;5.634;2023-07-29T00:08:07;2.33;;;2.13;;
60318;SDS011;46163;52.306;5.634;2023-07-29T00:10:35;2.92;;;2.22;;
60318;SDS011;46163;52.306;5.634;2023-07-29T00:13:04;2.85;;;1.90;;
60318;SDS011;46163;52.306;5.634;2023-07-29T00:15:30;2.25;;;1.83;;
60318;SDS011;46163;52.306;5.634;2023-07-29T00:17:56;2.92;;;1.88;;
60318;SDS011;46163;52.306;5.634;2023-07-29T00:20:21;1.73;;;1.63;;
60318;SDS011;46163;52.306;5.634;2023-07-29T00:22:47;1.90;;;1.70;;
60318;SDS011;46163;52.306;5.634;2023-07-29T00:25:15;1.80;;;1.70;;
60318;SDS011;46163;52.306;5.634;2023-07-29T00:27:46;1.58;;;1.48;;
60318;SDS011;46163;52.306;5.634;2023-07-29T00:30:12;2.00;;;1.83;;
60318;SDS011;46163;52.306;5.634;2023-07-29T00:32:38;1.80;;;1.70;;
60318;SDS011;46163;52.306;5.634;2023-07-29T00:35:05;4.45;;;2.05;;
60318;SDS011;46163;52.306;5.634;2023-07-29T00:37:31;1.90;;;1.80;;
60318;SDS011;46163;52.306;5.634;2023-07-29T00:39:57;1.80;;;1.70;;
60318;SDS011;46163;52.306;5.634;2023-07-29T00:42:23;1.95;;;1.80;;
60318;SDS011;46163;52.306;5.634;2023-07-29T00:44:49;2.00;;;1.80;;
60318;SDS011;46163;52.306;5.634;2023-07-29T00:47:15;2.00;;;1.80;;
60318;SDS011;46163;52.306;5.634;2023-07-29T00:49:41;3.15;;;1.67;;
60318;SDS011;46163;52.306;5.634;2023-07-29T00:52:10;1.70;;;1.60;;
60318;SDS011;46163;52.306;5.634;2023-07-29T00:54:38;3.50;;;1.90;;
60318;SDS011;46163;52.306;5.634;2023-07-29T00:57:04;5.85;;;1.40;;
60318;SDS011;46163;52.306;5.634;2023-07-29T00:59:31;2.05;;;1.73;;
60318;SDS011;46163;52.306;5.634;2023-07-29T01:01:57;2.45;;;1.70;;
60318;SDS011;46163;52.306;5.634;2023-07-29T01:04:23;1.75;;;1.63;;
60318;SDS011;46163;52.306;5.634;2023-07-29T01:09:21;2.15;;;1.55;;
60318;SDS011;46163;52.306;5.634;2023-07-29T01:17:48;2.05;;;1.85;;
60318;SDS011;46163;52.306;5.634;2023-07-29T01:20:17;4.03;;;1.60;;
60318;SDS011;46163;52.306;5.634;2023-07-29T01:22:46;3.60;;;1.70;;
60318;SDS011;46163;52.306;5.634;2023-07-29T01:25:15;1.77;;;1.65;;
60318;SDS011;46163;52.306;5.634;2023-07-29T01:27:44;2.08;;;1.88;;
60318;SDS011;46163;52.306;5.634;2023-07-29T01:30:10;6.07;;;1.95;;
60318;SDS011;46163;52.306;5.634;2023-07-29T01:32:54;1.55;;;1.45;;
60318;SDS011;46163;52.306;5.634;2023-07-29T01:38:18;2.17;;;1.70;;
60318;SDS011;46163;52.306;5.634;2023-07-29T01:40:46;1.70;;;1.60;;
60318;SDS011;46163;52.306;5.634;2023-07-29T01:43:13;3.55;;;1.77;;
60318;SDS011;46163;52.306;5.634;2023-07-29T01:45:39;3.22;;;1.70;;
60318;SDS011;46163;52.306;5.634;2023-07-29T01:48:05;2.22;;;1.77;;
60318;SDS011;46163;52.306;5.634;2023-07-29T01:50:32;3.10;;;2.08;;
60318;SDS011;46163;52.306;5.634;2023-07-29T01:52:58;3.75;;;1.70;;
60318;SDS011;46163;52.306;5.634;2023-07-29T01:55:24;1.42;;;1.40;;
60318;SDS011;46163;52.306;5.634;2023-07-29T02:00:17;1.85;;;1.75;;
60318;SDS011;46163;52.306;5.634;2023-07-29T02:02:44;1.80;;;1.70;;
60318;SDS011;46163;52.306;5.634;2023-07-29T02:05:10;2.13;;;1.55;;
60318;SDS011;46163;52.306;5.634;2023-07-29T02:07:35;1.67;;;1.50;;
60318;SDS011;46163;52.306;5.634;2023-07-29T02:10:01;1.73;;;1.63;;
60318;SDS011;46163;52.306;5.634;2023-07-29T02:12:27;2.55;;;1.85;;
60318;SDS011;46163;52.306;5.634;2023-07-29T02:14:52;2.38;;;1.77;;
60318;SDS011;46163;52.306;5.634;2023-07-29T02:17:17;1.83;;;1.73;;
60318;SDS011;46163;52.306;5.634;2023-07-29T02:19:43;2.83;;;1.80;;
60318;SDS011;46163;52.306;5.634;2023-07-29T02:22:10;2.60;;;1.80;;
60318;SDS011;46163;52.306;5.634;2023-07-29T02:24:38;2.17;;;1.55;;
60318;SDS011;46163;52.306;5.634;2023-07-29T02:27:06;1.50;;;1.48;;
60318;SDS011;46163;52.306;5.634;2023-07-29T02:29:33;1.70;;;1.60;;
60318;SDS011;46163;52.306;5.634;2023-07-29T02:31:59;1.92;;;1.70;;
60318;SDS011;46163;52.306;5.634;2023-07-29T02:34:25;1.70;;;1.60;;
60318;SDS011;46163;52.306;5.634;2023-07-29T02:36:50;2.25;;;1.70;;
60318;SDS011;46163;52.306;5.634;2023-07-29T02:39:16;1.92;;;1.83;;
60318;SDS011;46163;52.306;5.634;2023-07-29T02:41:41;1.70;;;1.60;;
60318;SDS011;46163;52.306;5.634;2023-07-29T02:44:07;2.22;;;1.77;;
60318;SDS011;46163;52.306;5.634;2023-07-29T02:46:32;2.22;;;1.80;;
60318;SDS011;46163;52.306;5.634;2023-07-29T02:48:58;2.03;;;1.90;;
60318;SDS011;46163;52.306;5.634;2023-07-29T02:51:24;2.58;;;2.10;;
60318;SDS011;46163;52.306;5.634;2023-07-29T02:53:49;3.03;;;1.98;;
60318;SDS011;46163;52.306;5.634;2023-07-29T02:56:18;1.98;;;1.88;;
60318;SDS011;46163;52.306;5.634;2023-07-29T02:58:43;4.78;;;2.17;;
60318;SDS011;46163;52.306;5.634;2023-07-29T03:01:09;3.08;;;2.13;;
60318;SDS011;46163;52.306;5.634;2023-07-29T03:03:40;3.40;;;2.30;;
60318;SDS011;46163;52.306;5.634;2023-07-29T03:06:09;4.10;;;2.30;;
60318;SDS011;46163;52.306;5.634;2023-07-29T03:08:35;6.28;;;2.83;;
60318;SDS011;46163;52.306;5.634;2023-07-29T03:11:09;2.90;;;2.47;;
60318;SDS011;46163;52.306;5.634;2023-07-29T03:13:36;3.55;;;2.47;;
60318;SDS011;46163;52.306;5.634;2023-07-29T03:16:05;4.05;;;2.60;;
60318;SDS011;46163;52.306;5.634;2023-07-29T03:18:39;7.95;;;2.78;;
60318;SDS011;46163;52.306;5.634;2023-07-29T03:21:05;3.95;;;2.20;;
60318;SDS011;46163;52.306;5.634;2023-07-29T03:23:30;3.95;;;2.67;;
60318;SDS011;46163;52.306;5.634;2023-07-29T03:26:00;3.22;;;2.40;;
60318;SDS011;46163;52.306;5.634;2023-07-29T03:28:30;2.70;;;2.42;;
60318;SDS011;46163;52.306;5.634;2023-07-29T03:30:57;3.28;;;2.42;;
60318;SDS011;46163;52.306;5.634;2023-07-29T03:33:26;3.05;;;2.67;;
60318;SDS011;46163;52.306;5.634;2023-07-29T03:35:51;3.85;;;2.80;;
60318;SDS011;46163;52.306;5.634;2023-07-29T03:38:17;2.88;;;2.58;;
60318;SDS011;46163;52.306;5.634;2023-07-29T03:40:45;3.92;;;2.67;;
60318;SDS011;46163;52.306;5.634;2023-07-29T03:43:13;5.03;;;3.20;;
60318;SDS011;46163;52.306;5.634;2023-07-29T03:45:39;4.00;;;2.95;;
60318;SDS011;46163;52.306;5.634;2023-07-29T03:48:05;5.47;;;2.70;;
60318;SDS011;46163;52.306;5.634;2023-07-29T03:50:32;5.22;;;3.05;;
60318;SDS011;46163;52.306;5.634;2023-07-29T03:53:00;3.95;;;2.85;;
60318;SDS011;46163;52.306;5.634;2023-07-29T03:55:25;5.03;;;3.08;;
60318;SDS011;46163;52.306;5.634;2023-07-29T03:57:55;3.67;;;2.67;;
60318;SDS011;46163;52.306;5.634;2023-07-29T04:00:21;3.30;;;2.85;;
60318;SDS011;46163;52.306;5.634;2023-07-29T04:02:49;4.32;;;2.83;;
60318;SDS011;46163;52.306;5.634;2023-07-29T04:05:15;3.88;;;3.25;;
60318;SDS011;46163;52.306;5.634;2023-07-29T04:07:41;4.70;;;3.00;;
60318;SDS011;46163;52.306;5.634;2023-07-29T04:10:09;3.45;;;2.72;;
60318;SDS011;46163;52.306;5.634;2023-07-29T04:12:35;3.72;;;3.20;;
60318;SDS011;46163;52.306;5.634;2023-07-29T04:15:01;3.83;;;3.05;;
60318;SDS011;46163;52.306;5.634;2023-07-29T04:17:27;5.75;;;3.00;;
60318;SDS011;46163;52.306;5.634;2023-07-29T04:19:55;4.40;;;3.42;;
60318;SDS011;46163;52.306;5.634;2023-07-29T04:22:20;4.63;;;3.15;;
60318;SDS011;46163;52.306;5.634;2023-07-29T04:24:46;6.85;;;3.55;;
60318;SDS011;46163;52.306;5.634;2023-07-29T04:27:11;3.90;;;3.30;;
60318;SDS011;46163;52.306;5.634;2023-07-29T04:29:39;4.53;;;3.47;;
60318;SDS011;46163;52.306;5.634;2023-07-29T04:32:05;3.60;;;3.05;;
60318;SDS011;46163;52.306;5.634;2023-07-29T04:34:31;5.95;;;3.63;;
60318;SDS011;46163;52.306;5.634;2023-07-29T04:36:57;3.90;;;3.15;;
60318;SDS011;46163;52.306;5.634;2023-07-29T04:39:22;4.75;;;3.55;;
60318;SDS011;46163;52.306;5.634;2023-07-29T04:41:48;8.50;;;3.10;;
60318;SDS011;46163;52.306;5.634;2023-07-29T04:44:13;7.32;;;3.05;;
60318;SDS011;46163;52.306;5.634;2023-07-29T04:46:39;4.35;;;3.28;;
60318;SDS011;46163;52.306;5.634;2023-07-29T04:49:04;4.53;;;3.13;;
60318;SDS011;46163;52.306;5.634;2023-07-29T04:51:30;4.18;;;3.03;;
60318;SDS011;46163;52.306;5.634;2023-07-29T04:53:57;4.45;;;2.97;;
60318;SDS011;46163;52.306;5.634;2023-07-29T04:56:22;5.60;;;3.22;;
60318;SDS011;46163;52.306;5.634;2023-07-29T04:58:51;3.00;;;2.70;;
60318;SDS011;46163;52.306;5.634;2023-07-29T05:01:18;4.20;;;3.20;;
60318;SDS011;46163;52.306;5.634;2023-07-29T05:03:43;4.05;;;2.97;;
60318;SDS011;46163;52.306;5.634;2023-07-29T05:06:08;2.83;;;2.45;;
60318;SDS011;46163;52.306;5.634;2023-07-29T05:08:34;4.70;;;3.00;;
60318;SDS011;46163;52.306;5.634;2023-07-29T05:11:00;3.28;;;2.80;;
60318;SDS011;46163;52.306;5.634;2023-07-29T05:15:53;4.55;;;2.75;;
60318;SDS011;46163;52.306;5.634;2023-07-29T05:18:21;4.60;;;3.10;;
60318;SDS011;46163;52.306;5.634;2023-07-29T05:20:47;2.90;;;2.60;;
60318;SDS011;46163;52.306;5.634;2023-07-29T05:23:12;4.45;;;2.80;;
60318;SDS011;46163;52.306;5.634;2023-07-29T05:25:38;3.58;;;2.45;;
60318;SDS011;46163;52.306;5.634;2023-07-29T05:28:03;4.18;;;2.70;;
60318;SDS011;46163;52.306;5.634;2023-07-29T05:30:29;3.45;;;2.78;;
60318;SDS011;46163;52.306;5.634;2023-07-29T05:32:59;2.63;;;2.40;;
60318;SDS011;46163;52.306;5.634;2023-07-29T05:35:25;2.65;;;2.42;;
60318;SDS011;46163;52.306;5.634;2023-07-29T05:37:50;4.28;;;2.47;;
60318;SDS011;46163;52.306;5.634;2023-07-29T05:40:15;2.80;;;2.50;;
60318;SDS011;46163;52.306;5.634;2023-07-29T05:42:42;5.32;;;2.63;;
60318;SDS011;46163;52.306;5.634;2023-07-29T05:45:07;2.33;;;2.13;;
60318;SDS011;46163;52.306;5.634;2023-07-29T05:47:36;3.42;;;2.50;;
60318;SDS011;46163;52.306;5.634;2023-07-29T05:50:02;4.35;;;2.60;;
60318;SDS011;46163;52.306;5.634;2023-07-29T05:52:29;2.63;;;2.40;;
60318;SDS011;46163;52.306;5.634;2023-07-29T05:54:55;2.55;;;1.88;;
60318;SDS011;46163;52.306;5.634;2023-07-29T05:57:23;2.75;;;2.28;;
60318;SDS011;46163;52.306;5.634;2023-07-29T05:59:49;5.53;;;2.22;;
60318;SDS011;46163;52.306;5.634;2023-07-29T06:02:16;3.25;;;2.22;;
60318;SDS011;46163;52.306;5.634;2023-07-29T06:04:42;4.85;;;2.63;;
60318;SDS011;46163;52.306;5.634;2023-07-29T06:07:07;2.10;;;1.92;;
60318;SDS011;46163;52.306;5.634;2023-07-29T06:09:33;3.03;;;2.33;;
60318;SDS011;46163;52.306;5.634;2023-07-29T06:11:58;2.70;;;2.20;;
60318;SDS011;46163;52.306;5.634;2023-07-29T06:14:24;2.22;;;1.95;;
60318;SDS011;46163;52.306;5.634;2023-07-29T06:16:49;5.65;;;2.42;;
60318;SDS011;46163;52.306;5.634;2023-07-29T06:19:15;3.97;;;2.30;;
60318;SDS011;46163;52.306;5.634;2023-07-29T06:21:40;2.38;;;2.17;;
60318;SDS011;46163;52.306;5.634;2023-07-29T06:24:08;4.78;;;2.35;;
60318;SDS011;46163;52.306;5.634;2023-07-29T06:26:33;2.42;;;2.10;;
60318;SDS011;46163;52.306;5.634;2023-07-29T06:28:59;6.38;;;2.28;;
60318;SDS011;46163;52.306;5.634;2023-07-29T06:31:24;6.28;;;2.17;;
60318;SDS011;46163;52.306;5.634;2023-07-29T06:33:50;4.13;;;2.45;;
60318;SDS011;46163;52.306;5.634;2023-07-29T06:36:15;7.30;;;2.30;;
60318;SDS011;46163;52.306;5.634;2023-07-29T06:38:43;3.22;;;2.25;;
60318;SDS011;46163;52.306;5.634;2023-07-29T06:41:08;2.45;;;2.05;;
60318;SDS011;46163;52.306;5.634;2023-07-29T06:43:34;3.38;;;2.47;;
60318;SDS011;46163;52.306;5.634;2023-07-29T06:45:59;3.15;;;2.63;;
60318;SDS011;46163;52.306;5.634;2023-07-29T06:48:27;2.05;;;1.95;;
60318;SDS011;46163;52.306;5.634;2023-07-29T06:50:52;2.35;;;2.15;;
60318;SDS011;46163;52.306;5.634;2023-07-29T06:53:20;10.65;;;2.53;;
60318;SDS011;46163;52.306;5.634;2023-07-29T06:55:46;2.28;;;2.00;;
60318;SDS011;46163;52.306;5.634;2023-07-29T06:58:11;2.70;;;2.13;;
60318;SDS011;46163;52.306;5.634;2023-07-29T07:00:37;2.40;;;2.17;;
60318;SDS011;46163;52.306;5.634;2023-07-29T07:03:02;2.22;;;2.03;;
60318;SDS011;46163;52.306;5.634;2023-07-29T07:05:28;2.53;;;2.13;;
60318;SDS011;46163;52.306;5.634;2023-07-29T07:07:53;2.35;;;2.08;;
60318;SDS011;46163;52.306;5.634;2023-07-29T07:10:19;2.38;;;2.17;;
60318;SDS011;46163;52.306;5.634;2023-07-29T07:12:44;2.78;;;2.20;;
60318;SDS011;46163;52.306;5.634;2023-07-29T07:15:10;2.17;;;1.83;;
60318;SDS011;46163;52.306;5.634;2023-07-29T07:17:35;2.33;;;2.13;;
60318;SDS011;46163;52.306;5.634;2023-07-29T07:20:04;7.40;;;2.13;;
60318;SDS011;46163;52.306;5.634;2023-07-29T07:22:30;3.15;;;2.17;;
60318;SDS011;46163;52.306;5.634;2023-07-29T07:24:56;2.92;;;2.30;;
60318;SDS011;46163;52.306;5.634;2023-07-29T07:27:22;2.58;;;2.38;;
60318;SDS011;46163;52.306;5.634;2023-07-29T07:29:47;4.07;;;2.28;;
60318;SDS011;46163;52.306;5.634;2023-07-29T07:32:20;6.03;;;2.80;;
60318;SDS011;46163;52.306;5.634;2023-07-29T07:55:32;3.00;;;2.45;;
60318;SDS011;46163;52.306;5.634;2023-07-29T07:58:03;3.28;;;2.35;;
60318;SDS011;46163;52.306;5.634;2023-07-29T08:02:53;3.17;;;2.45;;
60318;SDS011;46163;52.306;5.634;2023-07-29T08:05:19;5.00;;;2.72;;
60318;SDS011;46163;52.306;5.634;2023-07-29T08:07:44;3.40;;;2.53;;
60318;SDS011;46163;52.306;5.634;2023-07-29T08:10:10;3.92;;;2.40;;
60318;SDS011;46163;52.306;5.634;2023-07-29T08:12:35;9.48;;;2.72;;
60318;SDS011;46163;52.306;5.634;2023-07-29T08:15:01;4.78;;;2.70;;
60318;SDS011;46163;52.306;5.634;2023-07-29T08:17:27;2.85;;;2.65;;
60318;SDS011;46163;52.306;5.634;2023-07-29T08:19:53;3.53;;;2.63;;
60318;SDS011;46163;52.306;5.634;2023-07-29T08:22:18;3.13;;;2.60;;
60318;SDS011;46163;52.306;5.634;2023-07-29T08:24:46;4.75;;;2.88;;
60318;SDS011;46163;52.306;5.634;2023-07-29T08:27:11;2.75;;;2.50;;
60318;SDS011;46163;52.306;5.634;2023-07-29T08:29:37;3.58;;;2.83;;
60318;SDS011;46163;52.306;5.634;2023-07-29T08:32:04;4.53;;;3.05;;
60318;SDS011;46163;52.306;5.634;2023-07-29T08:34:30;3.67;;;3.10;;
60318;SDS011;46163;52.306;5.634;2023-07-29T08:36:55;3.20;;;2.70;;
60318;SDS011;46163;52.306;5.634;2023-07-29T08:39:21;4.40;;;2.53;;
60318;SDS011;46163;52.306;5.634;2023-07-29T08:41:56;2.53;;;2.33;;
60318;SDS011;46163;52.306;5.634;2023-07-29T08:44:35;3.33;;;2.70;;
60318;SDS011;46163;52.306;5.634;2023-07-29T08:47:05;3.00;;;2.70;;
60318;SDS011;46163;52.306;5.634;2023-07-29T08:49:30;3.33;;;2.70;;
60318;SDS011;46163;52.306;5.634;2023-07-29T08:51:57;3.33;;;2.40;;
60318;SDS011;46163;52.306;5.634;2023-07-29T08:54:23;4.53;;;2.63;;
60318;SDS011;46163;52.306;5.634;2023-07-29T08:56:48;3.20;;;2.50;;
60318;SDS011;46163;52.306;5.634;2023-07-29T08:59:15;3.40;;;2.60;;
60318;SDS011;46163;52.306;5.634;2023-07-29T09:01:42;3.00;;;2.70;;
60318;SDS011;46163;52.306;5.634;2023-07-29T09:04:08;3.15;;;2.40;;
60318;SDS011;46163;52.306;5.634;2023-07-29T09:06:33;3.28;;;2.20;;
60318;SDS011;46163;52.306;5.634;2023-07-29T09:09:00;4.40;;;1.98;;
60318;SDS011;46163;52.306;5.634;2023-07-29T09:11:28;1.60;;;1.50;;
60318;SDS011;46163;52.306;5.634;2023-07-29T09:13:54;5.20;;;1.40;;
60318;SDS011;46163;52.306;5.634;2023-07-29T09:18:51;1.60;;;1.50;;
60318;SDS011;46163;52.306;5.634;2023-07-29T09:21:17;2.17;;;1.88;;
60318;SDS011;46163;52.306;5.634;2023-07-29T09:23:43;1.50;;;1.40;;
60318;SDS011;46163;52.306;5.634;2023-07-29T09:26:09;2.28;;;1.60;;
60318;SDS011;46163;52.306;5.634;2023-07-29T09:28:37;2.15;;;1.80;;
60318;SDS011;46163;52.306;5.634;2023-07-29T09:31:03;3.53;;;1.73;;
60318;SDS011;46163;52.306;5.634;2023-07-29T09:33:32;1.85;;;1.45;;
60318;SDS011;46163;52.306;5.634;2023-07-29T09:36:00;3.45;;;1.80;;
60318;SDS011;46163;52.306;5.634;2023-07-29T09:38:26;3.20;;;1.70;;
60318;SDS011;46163;52.306;5.634;2023-07-29T09:40:54;1.90;;;1.70;;
60318;SDS011;46163;52.306;5.634;2023-07-29T09:43:24;2.28;;;1.65;;
60318;SDS011;46163;52.306;5.634;2023-07-29T09:45:53;2.75;;;1.70;;
60318;SDS011;46163;52.306;5.634;2023-07-29T09:48:22;2.03;;;1.83;;
60318;SDS011;46163;52.306;5.634;2023-07-29T09:50:47;2.08;;;1.88;;
60318;SDS011;46163;52.306;5.634;2023-07-29T09:53:13;2.05;;;1.80;;
60318;SDS011;46163;52.306;5.634;2023-07-29T09:55:39;2.00;;;1.80;;
60318;SDS011;46163;52.306;5.634;2023-07-29T09:58:10;1.67;;;1.58;;
60318;SDS011;46163;52.306;5.634;2023-07-29T10:00:36;1.95;;;1.67;;
60318;SDS011;46163;52.306;5.634;2023-07-29T10:03:04;2.28;;;1.70;;
60318;SDS011;46163;52.306;5.634;2023-07-29T10:08:00;2.38;;;1.83;;
60318;SDS011;46163;52.306;5.634;2023-07-29T10:10:26;1.92;;;1.65;;
60318;SDS011;46163;52.306;5.634;2023-07-29T10:12:53;4.88;;;1.70;;
60318;SDS011;46163;52.306;5.634;2023-07-29T10:15:19;3.45;;;1.90;;
60318;SDS011;46163;52.306;5.634;2023-07-29T10:17:46;1.60;;;1.30;;
60318;SDS011;46163;52.306;5.634;2023-07-29T10:20:14;2.05;;;1.63;;
60318;SDS011;46163;52.306;5.634;2023-07-29T10:22:40;5.10;;;1.63;;
60318;SDS011;46163;52.306;5.634;2023-07-29T10:25:11;2.15;;;1.70;;
60318;SDS011;46163;52.306;5.634;2023-07-29T10:27:45;1.80;;;1.55;;
60318;SDS011;46163;52.306;5.634;2023-07-29T10:30:14;4.85;;;1.92;;
60318;SDS011;46163;52.306;5.634;2023-07-29T10:32:43;2.08;;;1.75;;
60318;SDS011;46163;52.306;5.634;2023-07-29T10:35:12;1.98;;;1.75;;
60318;SDS011;46163;52.306;5.634;2023-07-29T10:37:38;2.50;;;1.92;;
60318;SDS011;46163;52.306;5.634;2023-07-29T10:40:09;2.20;;;1.88;;
60318;SDS011;46163;52.306;5.634;2023-07-29T10:42:38;2.28;;;2.00;;
60318;SDS011;46163;52.306;5.634;2023-07-29T10:45:19;1.98;;;1.77;;
60318;SDS011;46163;52.306;5.634;2023-07-29T10:47:46;2.47;;;1.83;;
60318;SDS011;46163;52.306;5.634;2023-07-29T10:50:19;2.08;;;1.88;;
60318;SDS011;46163;52.306;5.634;2023-07-29T10:52:49;4.88;;;1.70;;
60318;SDS011;46163;52.306;5.634;2023-07-29T10:55:24;2.25;;;1.95;;
60318;SDS011;46163;52.306;5.634;2023-07-29T10:57:51;1.63;;;1.52;;
60318;SDS011;46163;52.306;5.634;2023-07-29T11:00:18;6.80;;;1.85;;
60318;SDS011;46163;52.306;5.634;2023-07-29T11:02:46;3.13;;;2.00;;
60318;SDS011;46163;52.306;5.634;2023-07-29T11:05:25;2.67;;;1.80;;
60318;SDS011;46163;52.306;5.634;2023-07-29T11:07:50;2.10;;;1.60;;
60318;SDS011;46163;52.306;5.634;2023-07-29T11:10:16;1.50;;;1.40;;
60318;SDS011;46163;52.306;5.634;2023-07-29T11:12:45;2.38;;;1.48;;
60318;SDS011;46163;52.306;5.634;2023-07-29T11:20:08;2.30;;;1.52;;
60318;SDS011;46163;52.306;5.634;2023-07-29T11:22:34;2.33;;;1.40;;
60318;SDS011;46163;52.306;5.634;2023-07-29T11:25:01;1.90;;;1.77;;
60318;SDS011;46163;52.306;5.634;2023-07-29T11:27:26;2.38;;;1.80;;
60318;SDS011;46163;52.306;5.634;2023-07-29T11:30:02;3.25;;;2.20;;
60318;SDS011;46163;52.306;5.634;2023-07-29T11:32:33;2.08;;;1.98;;
60318;SDS011;46163;52.306;5.634;2023-07-29T11:35:04;2.90;;;1.92;;
60318;SDS011;46163;52.306;5.634;2023-07-29T11:37:30;1.83;;;1.70;;
60318;SDS011;46163;52.306;5.634;2023-07-29T11:39:55;1.90;;;1.80;;
60318;SDS011;46163;52.306;5.634;2023-07-29T11:42:21;2.20;;;2.00;;
60318;SDS011;46163;52.306;5.634;2023-07-29T11:44:47;4.88;;;1.77;;
60318;SDS011;46163;52.306;5.634;2023-07-29T11:47:13;1.92;;;1.83;;
60318;SDS011;46163;52.306;5.634;2023-07-29T11:49:39;2.15;;;1.95;;
60318;SDS011;46163;52.306;5.634;2023-07-29T11:52:06;3.40;;;2.30;;
60318;SDS011;46163;52.306;5.634;2023-07-29T11:54:38;2.92;;;2.13;;
60318;SDS011;46163;52.306;5.634;2023-07-29T11:57:05;3.17;;;2.00;;
60318;SDS011;46163;52.306;5.634;2023-07-29T11:59:33;3.03;;;2.30;;
60318;SDS011;46163;52.306;5.634;2023-07-29T12:02:05;3.85;;;2.38;;
60318;SDS011;46163;52.306;5.634;2023-07-29T12:04:35;2.60;;;2.20;;
60318;SDS011;46163;52.306;5.634;2023-07-29T12:07:03;2.28;;;2.08;;
60318;SDS011;46163;52.306;5.634;2023-07-29T12:09:31;2.38;;;2.17;;
60318;SDS011;46163;52.306;5.634;2023-07-29T12:11:58;2.13;;;1.93;;
60318;SDS011;46163;52.306;5.634;2023-07-29T12:14:26;2.10;;;1.90;;
60318;SDS011;46163;52.306;5.634;2023-07-29T12:16:54;1.60;;;1.50;;
60318;SDS011;46163;52.306;5.634;2023-07-29T12:19:22;1.45;;;1.35;;
60318;SDS011;46163;52.306;5.634;2023-07-29T12:21:48;0.90;;;0.90;;
60318;SDS011;46163;52.306;5.634;2023-07-29T12:24:14;1.98;;;1.20;;
60318;SDS011;46163;52.306;5.634;2023-07-29T12:26:40;1.60;;;1.17;;
60318;SDS011;46163;52.306;5.634;2023-07-29T12:29:13;0.98;;;0.98;;
60318;SDS011;46163;52.306;5.634;2023-07-29T12:31:46;1.10;;;1.10;;
60318;SDS011;46163;52.306;5.634;2023-07-29T12:34:18;1.35;;;1.25;;
60318;SDS011;46163;52.306;5.634;2023-07-29T12:36:46;0.88;;;0.88;;
60318;SDS011;46163;52.306;5.634;2023-07-29T12:39:55;0.70;;;0.70;;
60318;SDS011;46163;52.306;5.634;2023-07-29T12:42:05;0.98;;;0.98;;
60318;SDS011;46163;52.306;5.634;2023-07-29T12:44:34;0.90;;;0.90;;
60318;SDS011;46163;52.306;5.634;2023-07-29T12:47:01;1.05;;;0.95;;
60318;SDS011;46163;52.306;5.634;2023-07-29T12:49:30;1.00;;;1.00;;
60318;SDS011;46163;52.306;5.634;2023-07-29T12:51:56;1.02;;;1.02;;
60318;SDS011;46163;52.306;5.634;2023-07-29T12:54:22;0.90;;;0.90;;
60318;SDS011;46163;52.306;5.634;2023-07-29T12:56:47;3.00;;;1.00;;
60318;SDS011;46163;52.306;5.634;2023-07-29T12:59:15;2.17;;;1.10;;
60318;SDS011;46163;52.306;5.634;2023-07-29T13:01:43;0.98;;;0.98;;
60318;SDS011;46163;52.306;5.634;2023-07-29T13:04:09;1.30;;;1.23;;
60318;SDS011;46163;52.306;5.634;2023-07-29T13:06:36;0.90;;;0.90;;
60318;SDS011;46163;52.306;5.634;2023-07-29T13:09:01;1.42;;;1.30;;
60318;SDS011;46163;52.306;5.634;2023-07-29T13:11:28;1.05;;;1.05;;
60318;SDS011;46163;52.306;5.634;2023-07-29T13:13:53;1.00;;;1.00;;
60318;SDS011;46163;52.306;5.634;2023-07-29T13:16:19;1.95;;;1.10;;
60318;SDS011;46163;52.306;5.634;2023-07-29T13:18:46;0.90;;;0.90;;
60318;SDS011;46163;52.306;5.634;2023-07-29T13:21:12;1.15;;;1.15;;
60318;SDS011;46163;52.306;5.634;2023-07-29T13:23:39;1.40;;;1.30;;
60318;SDS011;46163;52.306;5.634;2023-07-29T13:26:05;1.75;;;1.65;;
60318;SDS011;46163;52.306;5.634;2023-07-29T13:28:33;1.60;;;1.45;;
60318;SDS011;46163;52.306;5.634;2023-07-29T13:30:58;1.63;;;1.50;;
60318;SDS011;46163;52.306;5.634;2023-07-29T13:33:23;2.17;;;1.80;;
60318;SDS011;46163;52.306;5.634;2023-07-29T13:35:49;3.13;;;1.70;;
60318;SDS011;46163;52.306;5.634;2023-07-29T13:38:15;1.48;;;1.40;;
60318;SDS011;46163;52.306;5.634;2023-07-29T13:40:41;1.23;;;1.23;;
60318;SDS011;46163;52.306;5.634;2023-07-29T13:45:34;2.35;;;1.00;;
60318;SDS011;46163;52.306;5.634;2023-07-29T13:48:02;1.13;;;1.13;;
60318;SDS011;46163;52.306;5.634;2023-07-29T13:50:28;1.40;;;1.30;;
60318;SDS011;46163;52.306;5.634;2023-07-29T13:52:53;1.42;;;1.33;;
60318;SDS011;46163;52.306;5.634;2023-07-29T13:55:21;2.20;;;1.50;;
60318;SDS011;46163;52.306;5.634;2023-07-29T13:57:46;1.40;;;1.30;;
60318;SDS011;46163;52.306;5.634;2023-07-29T14:00:14;1.42;;;1.33;;
60318;SDS011;46163;52.306;5.634;2023-07-29T14:02:39;1.55;;;1.20;;
60318;SDS011;46163;52.306;5.634;2023-07-29T14:05:06;2.83;;;1.30;;
60318;SDS011;46163;52.306;5.634;2023-07-29T14:07:34;1.50;;;1.40;;
60318;SDS011;46163;52.306;5.634;2023-07-29T14:09:59;1.00;;;1.00;;
60318;SDS011;46163;52.306;5.634;2023-07-29T14:12:25;1.20;;;1.10;;
60318;SDS011;46163;52.306;5.634;2023-07-29T14:14:50;1.50;;;1.40;;
60318;SDS011;46163;52.306;5.634;2023-07-29T14:17:21;1.27;;;1.25;;
60318;SDS011;46163;52.306;5.634;2023-07-29T14:19:48;1.40;;;1.30;;
60318;SDS011;46163;52.306;5.634;2023-07-29T14:22:13;1.33;;;1.23;;
60318;SDS011;46163;52.306;5.634;2023-07-29T14:24:41;2.13;;;1.40;;
60318;SDS011;46163;52.306;5.634;2023-07-29T14:29:32;1.63;;;1.52;;
60318;SDS011;46163;52.306;5.634;2023-07-29T14:31:57;1.40;;;1.30;;
60318;SDS011;46163;52.306;5.634;2023-07-29T14:34:23;3.28;;;1.35;;
60318;SDS011;46163;52.306;5.634;2023-07-29T14:36:48;1.45;;;1.38;;
60318;SDS011;46163;52.306;5.634;2023-07-29T14:39:14;1.38;;;1.27;;
60318;SDS011;46163;52.306;5.634;2023-07-29T14:41:41;2.65;;;1.35;;
60318;SDS011;46163;52.306;5.634;2023-07-29T14:44:07;1.50;;;1.40;;
60318;SDS011;46163;52.306;5.634;2023-07-29T14:46:35;1.30;;;1.27;;
60318;SDS011;46163;52.306;5.634;2023-07-29T14:51:25;1.58;;;1.48;;
60318;SDS011;46163;52.306;5.634;2023-07-29T14:53:53;1.88;;;1.73;;
60318;SDS011;46163;52.306;5.634;2023-07-29T14:56:18;1.80;;;1.65;;
60318;SDS011;46163;52.306;5.634;2023-07-29T14:58:44;1.60;;;1.50;;
60318;SDS011;46163;52.306;5.634;2023-07-29T15:01:10;1.85;;;1.52;;
60318;SDS011;46163;52.306;5.634;2023-07-29T15:03:38;1.70;;;1.60;;
60318;SDS011;46163;52.306;5.634;2023-07-29T15:06:03;3.25;;;1.40;;
60318;SDS011;46163;52.306;5.634;2023-07-29T15:08:29;1.88;;;1.58;;
60318;SDS011;46163;52.306;5.634;2023-07-29T15:10:54;1.55;;;1.45;;
60318;SDS011;46163;52.306;5.634;2023-07-29T15:13:20;1.30;;;1.30;;
60318;SDS011;46163;52.306;5.634;2023-07-29T15:15:45;1.40;;;1.30;;
60318;SDS011;46163;52.306;5.634;2023-07-29T15:18:11;1.48;;;1.38;;
60318;SDS011;46163;52.306;5.634;2023-07-29T15:20:38;1.23;;;1.20;;
60318;SDS011;46163;52.306;5.634;2023-07-29T15:23:04;1.20;;;1.20;;
60318;SDS011;46163;52.306;5.634;2023-07-29T15:25:29;1.25;;;1.20;;
60318;SDS011;46163;52.306;5.634;2023-07-29T15:27:57;2.50;;;1.40;;
60318;SDS011;46163;52.306;5.634;2023-07-29T15:30:23;1.75;;;1.50;;
60318;SDS011;46163;52.306;5.634;2023-07-29T15:32:48;1.77;;;1.30;;
60318;SDS011;46163;52.306;5.634;2023-07-29T15:35:14;1.85;;;1.27;;
60318;SDS011;46163;52.306;5.634;2023-07-29T15:37:40;1.48;;;1.38;;
60318;SDS011;46163;52.306;5.634;2023-07-29T15:40:06;1.25;;;0.98;;
60318;SDS011;46163;52.306;5.634;2023-07-29T15:42:32;1.50;;;1.23;;